Airfield :
LOGIN :

Register | Disclaimer

   EN    FR    IT 

 










Legend :    VFR   Marginal VFR   IFR   Intensive IFR   Very Intensive IFR
Visi :
Ceiling :
>= 8 km
>= 3000ft
5 to 8 km
1000 to 3000 ft
1500m to 5 km
500 to 1000 ft
800 to 1500m
200 to 500 ft
< 800m
< 200 ft
Symbols :   Thunderstorms  Fog  Heavy snow  Heavy precipitations  Wind > 20 kt
SIGMETs :     Misc.  Thunderstorms  Icing  Turbulence  Mountain Waves  Volcanic Ashes






- Airport Elevation : 209 ft
- IATA code : CLY


LFKC - Calvi

CURRENT METAR :
  • 020130Z AUTO 19003KT CAVOK 05/03 Q1028

EXPIRED METARs :
  • 020100Z AUTO 19004KT 160V250 CAVOK 06/05 Q1028
  • 020030Z AUTO 19003KT CAVOK 05/04 Q1028
  • 020000Z AUTO 20003KT CAVOK 06/04 Q1028
  • 012330Z AUTO 16002KT CAVOK 06/04 Q1028
  • 012300Z AUTO 19005KT CAVOK 06/04 Q1028

TAF TAF LFKC
Valid from the 01 at 15:00 until the 02 at 15:00 UTC


011400Z 0115/0215 35007KT CAVOK TX15/0212Z TN05/0204Z
BECMG 0116/0118 18003KT
ATIS : +33 4 95 65 82 49



MET'MAP, your aeronautical weather chart ! - Copyright ORBIFLY December 2007 - Disclaimer

ORBIFLY MET'MAP TEAM :

Programming & Development : Alexandra Zaïnal
Concept & original design : Baudouin d'Aumeries
Assistance for programming : Marc-Olivier Méhu
Technical & hardware support : Manuel Goepfert

Contact : metmap@orbifly.com




SOURCES & CREDITS :

   NOAA